Time;durP1;ratioP1;P1;durP2;ratioP2;P2;SDS_P1;SDS_P2;PMS_P1;PMS_P2;Temp;Humidity;BMP_temperature;BMP_pressure;BME280_temperature;BME280_humidity;BME280_pressure;Samples;Min_cycle;Max_cycle;Signal;HPM_P1;HPM_P2
2021/01/25 00:02:07;;;;;;;4.17;3.70;;;;;;;12.44;56.55;98458.79;1751162;81;21143;-67
2021/01/25 00:04:35;;;;;;;3.58;3.25;;;;;;;12.44;56.57;98469.44;1742286;81;21435;-68
2021/01/25 00:07:04;;;;;;;4.03;3.40;;;;;;;12.42;56.58;98471.01;1753298;81;21219;-68
2021/01/25 00:09:33;;;;;;;3.98;3.50;;;;;;;12.41;56.60;98474.69;1727808;81;21615;-67
2021/01/25 00:12:03;;;;;;;3.98;3.58;;;;;;;12.41;56.64;98477.34;1737267;81;21142;-68
2021/01/25 00:14:32;;;;;;;3.95;3.52;;;;;;;12.39;56.64;98478.89;1699558;84;21219;-69
2021/01/25 00:17:00;;;;;;;4.92;3.92;;;;;;;12.38;56.67;98483.92;1726180;81;21660;-67
2021/01/25 00:19:28;;;;;;;5.42;4.30;;;;;;;12.38;56.68;98488.41;1761561;81;21568;-67
2021/01/25 00:21:55;;;;;;;4.37;3.72;;;;;;;12.37;56.70;98480.13;1754859;81;21624;-67
2021/01/25 00:24:22;;;;;;;3.58;3.08;;;;;;;12.37;56.73;98484.13;1747274;80;21662;-67
2021/01/25 00:26:49;;;;;;;3.35;3.05;;;;;;;12.36;56.72;98475.33;1736119;81;21163;-67
2021/01/25 00:29:17;;;;;;;4.28;3.80;;;;;;;12.36;56.76;98470.50;1732358;81;21596;-67
2021/01/25 00:31:44;;;;;;;4.05;3.62;;;;;;;12.35;56.78;98474.20;1757636;81;21131;-67
2021/01/25 00:34:11;;;;;;;4.35;3.15;;;;;;;12.36;56.79;98471.33;1765067;80;21175;-67
2021/01/25 00:36:39;;;;;;;4.42;3.30;;;;;;;12.46;56.60;98466.05;1735016;81;21146;-67
2021/01/25 00:39:06;;;;;;;4.85;3.50;;;;;;;12.50;56.51;98468.63;1749977;81;21146;-67
2021/01/25 00:41:34;;;;;;;3.90;3.40;;;;;;;12.40;56.52;98461.08;1752988;81;21155;-69
2021/01/25 00:44:01;;;;;;;3.37;3.08;;;;;;;12.45;56.54;98463.91;1724050;81;21147;-68
2021/01/25 00:46:29;;;;;;;4.95;3.47;;;;;;;12.45;56.56;98461.25;1739617;81;21154;-69
2021/01/25 00:48:56;;;;;;;4.15;3.37;;;;;;;12.44;56.58;98453.46;1741489;81;21899;-69
2021/01/25 00:51:23;;;;;;;3.87;3.45;;;;;;;12.43;56.60;98446.52;1756684;81;21172;-69
2021/01/25 00:53:51;;;;;;;3.33;2.95;;;;;;;12.43;56.57;98443.85;1752298;81;21195;-68
2021/01/25 00:56:19;;;;;;;4.92;3.83;;;;;;;12.42;56.60;98438.20;1744654;81;21154;-68
2021/01/25 00:58:47;;;;;;;3.90;3.47;;;;;;;12.41;56.61;98440.06;1737481;81;21179;-69
2021/01/25 01:01:14;;;;;;;3.75;3.35;;;;;;;12.39;56.64;98429.61;1748375;81;21187;-67
2021/01/25 01:03:42;;;;;;;5.22;3.15;;;;;;;12.37;56.64;98426.88;1728553;81;21151;-68
2021/01/25 01:06:09;;;;;;;3.87;3.45;;;;;;;12.37;56.67;98425.02;1735172;81;21751;-68
2021/01/25 01:08:37;;;;;;;4.08;3.67;;;;;;;12.36;56.64;98423.40;1738243;81;21147;-68
2021/01/25 01:11:04;;;;;;;5.40;4.20;;;;;;;12.36;56.67;98427.39;1753120;81;21159;-69
2021/01/25 01:13:32;;;;;;;4.30;3.52;;;;;;;12.35;56.69;98427.08;1697337;84;21155;-68
2021/01/25 01:16:01;;;;;;;4.17;3.60;;;;;;;12.35;56.68;98424.41;1744015;81;21168;-68
2021/01/25 01:18:28;;;;;;;4.70;3.47;;;;;;;12.33;56.74;98421.14;1747229;81;23604;-69
2021/01/25 01:20:56;;;;;;;4.58;4.12;;;;;;;12.33;56.77;98433.13;1750327;81;21206;-68
2021/01/25 01:23:23;;;;;;;3.47;3.08;;;;;;;12.33;56.75;98425.14;1750866;81;21124;-68
2021/01/25 01:25:51;;;;;;;3.90;3.50;;;;;;;12.32;56.78;98424.02;1743759;81;22000;-67
2021/01/25 01:28:19;;;;;;;4.53;3.55;;;;;;;12.31;56.79;98419.21;1735315;81;21151;-67
2021/01/25 01:30:46;;;;;;;5.00;3.62;;;;;;;12.30;56.82;98417.56;1738907;81;21200;-68
2021/01/25 01:33:13;;;;;;;4.62;3.62;;;;;;;12.30;56.83;98420.75;1735930;81;21099;-67
2021/01/25 01:35:41;;;;;;;4.25;3.60;;;;;;;12.29;56.85;98419.94;1743939;81;21163;-69
2021/01/25 01:38:08;;;;;;;3.72;3.42;;;;;;;12.29;56.85;98419.94;1755213;81;22138;-67
2021/01/25 01:40:35;;;;;;;4.53;3.85;;;;;;;12.28;56.83;98419.62;1744020;81;21131;-68
2021/01/25 01:43:02;;;;;;;4.30;3.90;;;;;;;12.28;56.86;98421.48;1753255;80;21242;-68
2021/01/25 01:45:31;;;;;;;4.33;3.33;;;;;;;12.28;56.86;98425.47;1755354;80;21143;-68
2021/01/25 01:47:58;;;;;;;4.30;3.25;;;;;;;12.27;56.89;98426.52;1764417;80;21138;-68
2021/01/25 01:50:27;;;;;;;5.15;3.40;;;;;;;12.36;56.78;98423.40;1754815;80;21214;-68
2021/01/25 01:52:55;;;;;;;4.12;3.58;;;;;;;12.47;56.59;98423.75;1752055;80;21172;-67
2021/01/25 01:55:22;;;;;;;4.33;3.72;;;;;;;12.44;56.61;98424.16;1758974;80;21503;-67
2021/01/25 01:57:53;;;;;;;4.85;3.47;;;;;;;12.41;56.63;98419.28;1744409;80;21111;-68
2021/01/25 02:00:21;;;;;;;4.75;3.47;;;;;;;12.41;56.65;98424.61;1754762;80;21584;-67
2021/01/25 02:02:50;;;;;;;4.12;3.47;;;;;;;12.38;56.66;98420.01;1747641;80;22036;-68
2021/01/25 02:05:19;;;;;;;3.95;3.22;;;;;;;12.37;56.66;98419.69;1754922;80;21075;-68
2021/01/25 02:07:51;;;;;;;4.00;3.40;;;;;;;12.37;56.69;98417.55;1758948;80;21367;-67
2021/01/25 02:10:22;;;;;;;4.40;3.45;;;;;;;12.35;56.71;98413.77;1747698;80;21179;-68
2021/01/25 02:12:51;;;;;;;4.20;3.30;;;;;;;12.35;56.72;98420.42;1746503;80;21128;-68
2021/01/25 02:15:18;;;;;;;4.45;3.72;;;;;;;12.34;56.76;98420.63;1747541;80;21172;-67
2021/01/25 02:17:50;;;;;;;3.87;3.47;;;;;;;12.33;56.77;98423.81;1753941;80;21199;-68
2021/01/25 02:20:23;;;;;;;4.78;3.77;;;;;;;12.32;56.77;98428.84;1766633;80;21364;-67
2021/01/25 02:23:28;;;;;;;3.98;3.33;;;;;;;12.31;56.79;98425.88;1746773;80;21174;-67
2021/01/25 02:26:18;;;;;;;4.37;3.58;;;;;;;12.30;56.82;98425.55;1767859;80;21123;-68
2021/01/25 02:28:45;;;;;;;4.30;3.77;;;;;;;12.26;56.87;98431.52;1747114;80;21095;-68
2021/01/25 02:31:13;;;;;;;4.70;3.83;;;;;;;12.24;56.92;98430.92;1701326;84;21167;-68
2021/01/25 02:33:51;;;;;;;4.15;3.77;;;;;;;12.23;56.94;98440.76;1679322;84;21380;-68
2021/01/25 02:36:18;;;;;;;4.35;3.70;;;;;;;12.22;56.96;98433.78;1688169;83;21193;-68
2021/01/25 02:38:49;;;;;;;4.83;3.80;;;;;;;12.22;56.98;98432.45;1704676;83;21611;-68
2021/01/25 02:41:20;;;;;;;4.30;3.67;;;;;;;12.20;57.03;98434.51;1692875;83;21203;-69
2021/01/25 02:43:50;;;;;;;3.67;3.20;;;;;;;12.20;57.02;98434.51;1695175;83;21215;-68
2021/01/25 02:46:17;;;;;;;5.33;4.50;;;;;;;12.18;57.04;98436.05;1685765;83;21381;-68
2021/01/25 02:48:44;;;;;;;5.25;3.77;;;;;;;12.19;57.05;98438.22;1750560;81;21159;-68
2021/01/25 02:51:12;;;;;;;3.60;3.10;;;;;;;12.17;57.06;98434.42;1734724;81;21127;-68
2021/01/25 02:53:40;;;;;;;4.37;3.98;;;;;;;12.28;57.01;98434.79;1746296;81;21167;-70
2021/01/25 02:56:07;;;;;;;4.37;3.52;;;;;;;12.39;56.75;98440.27;1743124;81;21602;-68
2021/01/25 02:58:36;;;;;;;4.25;3.60;;;;;;;12.39;56.76;98452.78;1737182;81;21361;-69
2021/01/25 03:01:03;;;;;;;4.50;3.72;;;;;;;12.35;56.78;98447.05;1755904;81;21164;-68
2021/01/25 03:03:31;;;;;;;3.95;3.45;;;;;;;12.33;56.79;98450.44;1729441;81;21174;-68
2021/01/25 03:05:58;;;;;;;5.47;3.35;;;;;;;12.32;56.82;98446.16;1727608;81;21173;-68
2021/01/25 03:08:26;;;;;;;4.30;3.77;;;;;;;12.33;56.82;98452.30;1746216;81;21136;-69
2021/01/25 03:10:56;;;;;;;4.08;3.67;;;;;;;12.31;56.82;98449.83;1738689;80;22215;-68
2021/01/25 03:13:27;;;;;;;4.40;3.60;;;;;;;12.31;56.81;98447.17;1733255;81;21143;-68
2021/01/25 03:15:57;;;;;;;4.12;3.55;;;;;;;12.31;56.87;98445.84;1743726;81;21180;-68
2021/01/25 03:18:27;;;;;;;4.15;3.58;;;;;;;12.28;56.88;98444.92;1733934;81;21682;-68
2021/01/25 03:20:55;;;;;;;5.03;3.62;;;;;;;12.27;56.89;98451.29;1741009;81;21136;-68
2021/01/25 03:23:22;;;;;;;4.40;3.67;;;;;;;12.26;56.89;98448.30;1729161;81;21157;-68
2021/01/25 03:25:50;;;;;;;4.12;3.70;;;;;;;12.26;56.90;98444.31;1743252;81;21662;-68
2021/01/25 03:28:17;;;;;;;4.33;3.92;;;;;;;12.25;56.91;98441.89;1726049;81;21187;-68
2021/01/25 03:30:45;;;;;;;4.17;3.65;;;;;;;12.24;56.94;98438.38;1741443;81;21186;-69
2021/01/25 03:33:12;;;;;;;4.47;4.00;;;;;;;12.24;56.94;98431.73;1759028;81;21159;-67
2021/01/25 03:35:40;;;;;;;4.25;3.83;;;;;;;12.23;56.97;98426.61;1729191;81;21469;-68
2021/01/25 03:38:07;;;;;;;3.80;3.42;;;;;;;12.22;57.00;98432.45;1752805;81;21227;-68
2021/01/25 03:40:34;;;;;;;4.33;3.75;;;;;;;12.20;56.98;98431.84;1735195;81;21135;-68
2021/01/25 03:43:02;;;;;;;4.37;3.67;;;;;;;12.20;56.99;98427.33;1754246;80;21119;-68
2021/01/25 03:45:29;;;;;;;4.80;3.98;;;;;;;12.20;56.99;98423.86;1771467;80;21127;-67
2021/01/25 03:47:57;;;;;;;5.70;4.30;;;;;;;12.19;57.05;98419.05;1746568;80;21845;-68
2021/01/25 03:50:24;;;;;;;5.47;4.15;;;;;;;12.18;57.05;98416.08;1751087;80;21211;-67
2021/01/25 03:52:51;;;;;;;4.53;3.87;;;;;;;12.17;57.06;98401.67;1761119;80;21572;-67
2021/01/25 03:55:19;;;;;;;4.25;3.62;;;;;;;12.17;57.08;98401.15;1749144;80;21154;-68
2021/01/25 03:57:46;;;;;;;4.33;3.80;;;;;;;12.25;57.01;98401.42;1749894;80;21103;-69
2021/01/25 04:00:15;;;;;;;3.90;3.27;;;;;;;12.38;56.75;98404.52;1749553;80;21196;-68
2021/01/25 04:02:43;;;;;;;3.90;3.47;;;;;;;12.35;56.76;98404.44;1746796;80;21245;-68
2021/01/25 04:05:11;;;;;;;4.75;3.80;;;;;;;12.32;56.80;98398.23;1746458;80;21142;-67
2021/01/25 04:07:40;;;;;;;4.62;4.00;;;;;;;12.30;56.83;98395.45;1763907;80;21159;-68
2021/01/25 04:10:08;;;;;;;4.60;4.12;;;;;;;12.29;56.83;98394.64;1750127;80;21583;-68
2021/01/25 04:12:36;;;;;;;4.65;3.80;;;;;;;12.28;56.82;98403.64;1747943;80;21294;-69
2021/01/25 04:15:06;;;;;;;5.30;4.17;;;;;;;12.28;56.83;98404.17;1763992;80;21147;-69
2021/01/25 04:17:34;;;;;;;4.37;3.60;;;;;;;12.27;56.86;98407.35;1753144;80;21601;-68
2021/01/25 04:20:04;;;;;;;4.55;4.03;;;;;;;12.27;56.87;98400.70;1752423;80;21151;-69
2021/01/25 04:22:32;;;;;;;4.95;4.45;;;;;;;12.24;56.87;98405.09;1746883;80;21144;-68
2021/01/25 04:25:00;;;;;;;3.90;3.50;;;;;;;12.23;56.89;98400.82;1752146;80;23402;-70
2021/01/25 04:27:27;;;;;;;4.03;3.62;;;;;;;12.23;56.93;98400.82;1761756;80;21147;-69
2021/01/25 04:29:54;;;;;;;4.97;4.47;;;;;;;12.20;56.94;98395.38;1748390;80;21221;-68
2021/01/25 04:32:22;;;;;;;4.17;3.77;;;;;;;12.20;56.95;98396.72;1750078;80;21160;-68
2021/01/25 04:34:50;;;;;;;4.72;4.22;;;;;;;12.19;56.93;98399.61;1751196;80;21144;-69
2021/01/25 04:37:18;;;;;;;4.83;4.33;;;;;;;12.18;56.99;98398.77;1750449;80;21379;-67
2021/01/25 04:39:48;;;;;;;4.97;4.40;;;;;;;12.17;57.01;98393.69;1754900;80;21148;-69
2021/01/25 04:42:15;;;;;;;5.03;4.05;;;;;;;12.16;57.02;98404.02;1752570;80;21182;-68
2021/01/25 04:44:42;;;;;;;4.40;4.00;;;;;;;12.15;57.06;98403.20;1744573;80;21166;-68
2021/01/25 04:47:09;;;;;;;4.92;4.12;;;;;;;12.15;57.05;98403.20;1758005;80;21099;-69
2021/01/25 04:49:39;;;;;;;4.53;4.00;;;;;;;12.15;57.08;98403.73;1755606;80;21155;-69
2021/01/25 04:52:07;;;;;;;4.55;4.03;;;;;;;12.14;57.09;98396.23;1759636;80;21275;-69
2021/01/25 04:54:34;;;;;;;4.40;4.00;;;;;;;12.13;57.11;98389.78;1756715;80;21139;-69
2021/01/25 04:57:01;;;;;;;5.67;4.35;;;;;;;12.13;57.14;98383.13;1740329;80;21154;-69
2021/01/25 04:59:29;;;;;;;4.35;3.95;;;;;;;12.12;57.16;98381.51;1764309;80;21127;-69
2021/01/25 05:01:56;;;;;;;5.10;3.72;;;;;;;12.21;57.06;98385.58;1750616;80;21758;-69
2021/01/25 05:04:24;;;;;;;4.53;4.12;;;;;;;12.32;56.85;98387.58;1755057;80;21104;-68
2021/01/25 05:06:51;;;;;;;4.62;4.12;;;;;;;12.30;56.82;98390.94;1770146;80;21135;-69
2021/01/25 05:09:18;;;;;;;4.87;4.40;;;;;;;12.27;56.84;98390.57;1763869;80;22060;-67
2021/01/25 05:12:01;;;;;;;5.00;4.45;;;;;;;12.25;56.86;98388.11;1757917;80;21207;-68
2021/01/25 05:14:39;;;;;;;4.17;3.77;;;;;;;12.24;56.89;98389.12;1765511;80;21182;-68
2021/01/25 05:17:14;;;;;;;4.75;4.08;;;;;;;12.23;56.89;98380.85;1767798;80;21425;-68
2021/01/25 05:19:46;;;;;;;4.62;3.80;;;;;;;12.20;56.92;98386.06;1765582;80;21099;-69
2021/01/25 05:22:18;;;;;;;4.83;4.35;;;;;;;12.20;56.92;98386.59;1777042;80;21131;-68
2021/01/25 05:24:52;;;;;;;5.27;4.77;;;;;;;12.17;56.97;98382.52;1735838;82;21172;-68
2021/01/25 05:27:31;;;;;;;5.17;4.55;;;;;;;12.16;56.99;98387.52;1696217;83;21620;-68
2021/01/25 05:30:10;;;;;;;4.33;3.92;;;;;;;12.14;57.01;98393.57;1710116;83;21151;-69
2021/01/25 05:32:48;;;;;;;5.55;4.80;;;;;;;12.14;57.02;98391.43;1693123;83;21635;-68
2021/01/25 05:35:18;;;;;;;5.15;4.65;;;;;;;12.12;57.06;98402.80;1690627;83;21183;-68
2021/01/25 05:37:55;;;;;;;5.87;5.12;;;;;;;12.12;57.11;98413.45;1696065;84;21156;-68
2021/01/25 05:40:26;;;;;;;5.03;4.53;;;;;;;12.10;57.11;98414.98;1692308;83;22104;-68
2021/01/25 05:42:55;;;;;;;6.50;4.58;;;;;;;12.10;57.13;98418.17;1697546;83;21238;-68
2021/01/25 05:45:26;;;;;;;4.78;4.35;;;;;;;12.08;57.15;98417.05;1693701;83;21180;-69
2021/01/25 05:47:58;;;;;;;5.40;4.83;;;;;;;12.07;57.19;98416.76;1686205;83;21199;-69
2021/01/25 05:50:36;;;;;;;6.00;5.40;;;;;;;12.07;57.16;98416.76;1690438;83;21159;-70
2021/01/25 05:53:06;;;;;;;5.15;4.55;;;;;;;12.07;57.19;98418.09;1740661;81;21203;-67
2021/01/25 05:55:34;;;;;;;5.37;4.87;;;;;;;12.06;57.20;98415.11;1749354;81;21211;-69
2021/01/25 05:58:02;;;;;;;5.30;4.67;;;;;;;12.05;57.23;98421.45;1687387;84;21610;-67
2021/01/25 06:00:31;;;;;;;4.47;4.08;;;;;;;12.13;57.16;98421.73;1678909;84;21642;-68
2021/01/25 06:02:58;;;;;;;5.30;3.83;;;;;;;12.26;56.91;98420.34;1672739;84;22119;-67
2021/01/25 06:05:34;;;;;;;5.53;4.80;;;;;;;12.23;56.89;98424.78;1739417;81;21457;-68
2021/01/25 06:08:31;;;;;;;4.90;4.28;;;;;;;12.13;56.93;98408.42;1749665;81;21977;-67
2021/01/25 06:11:10;;;;;;;4.80;4.05;;;;;;;12.17;56.97;98417.64;1739099;81;21160;-69
2021/01/25 06:13:54;;;;;;;5.58;4.87;;;;;;;12.15;57.00;98411.72;1741909;81;21115;-67
2021/01/25 06:16:24;;;;;;;5.55;4.72;;;;;;;12.13;57.02;98417.24;1741335;81;21165;-67
2021/01/25 06:18:56;;;;;;;5.65;4.83;;;;;;;12.13;57.04;98402.60;1743029;81;21199;-68
2021/01/25 06:21:30;;;;;;;5.47;4.97;;;;;;;12.11;57.06;98401.16;1739723;80;21199;-68
2021/01/25 06:24:01;;;;;;;4.92;4.12;;;;;;;12.11;57.06;98398.00;1736794;81;21179;-68
2021/01/25 06:26:30;;;;;;;5.10;4.60;;;;;;;12.10;57.06;98399.02;1736903;81;21221;-69
2021/01/25 06:29:04;;;;;;;4.83;4.35;;;;;;;12.10;57.08;98403.53;1749190;81;21208;-69
2021/01/25 06:31:40;;;;;;;5.05;4.55;;;;;;;12.09;57.09;98387.24;1738858;81;22697;-69
2021/01/25 06:34:10;;;;;;;4.97;4.22;;;;;;;12.09;57.11;98404.55;1758202;81;21186;-68
2021/01/25 06:36:40;;;;;;;5.03;4.30;;;;;;;12.08;57.10;98380.30;1736211;81;21139;-68
2021/01/25 06:39:07;;;;;;;4.60;4.20;;;;;;;12.08;57.09;98386.95;1743746;81;21623;-67
2021/01/25 06:41:39;;;;;;;4.75;4.25;;;;;;;12.08;57.14;98384.30;1751839;81;21167;-68
2021/01/25 06:44:08;;;;;;;6.17;5.17;;;;;;;12.06;57.14;98381.84;1741558;81;21359;-69
2021/01/25 06:46:38;;;;;;;5.00;4.50;;;;;;;12.07;57.14;98402.13;1743171;79;21207;-69
2021/01/25 06:49:07;;;;;;;5.08;4.42;;;;;;;12.07;57.15;98402.61;1756291;79;21745;-67
2021/01/25 06:51:43;;;;;;;5.45;4.80;;;;;;;12.08;57.14;98409.58;1745368;79;21108;-67
2021/01/25 06:54:13;;;;;;;5.33;4.80;;;;;;;12.07;57.15;98409.27;1756285;79;21139;-69
2021/01/25 06:56:59;;;;;;;5.30;4.80;;;;;;;12.07;57.15;98406.60;1743012;81;21380;-68
2021/01/25 06:59:30;;;;;;;4.50;4.10;;;;;;;12.07;57.15;98414.59;1755281;79;21231;-67
2021/01/25 07:01:57;;;;;;;4.75;4.22;;;;;;;12.05;57.15;98407.33;1770118;79;21159;-68
2021/01/25 07:04:26;;;;;;;4.85;4.20;;;;;;;12.05;57.15;98406.80;1744893;81;21197;-67
2021/01/25 07:06:55;;;;;;;4.33;3.92;;;;;;;12.13;57.08;98398.61;1740352;81;21144;-67
2021/01/25 07:09:27;;;;;;;4.30;3.90;;;;;;;12.27;56.82;98403.88;1735762;81;21198;-67
2021/01/25 07:12:04;;;;;;;4.65;4.15;;;;;;;12.29;56.81;98392.50;1835846;77;28770;-67
2021/01/25 07:14:32;;;;;;;4.55;4.08;;;;;;;12.23;56.81;98398.65;1776215;79;21137;-68
2021/01/25 07:17:00;;;;;;;4.85;4.35;;;;;;;12.20;56.84;98399.38;1790625;77;21363;-68
2021/01/25 07:19:28;;;;;;;4.60;4.00;;;;;;;12.20;56.83;98393.24;1783424;79;21188;-68
2021/01/25 07:21:55;;;;;;;4.62;4.10;;;;;;;12.20;56.83;98399.90;1789505;79;21144;-67
2021/01/25 07:24:25;;;;;;;4.62;3.75;;;;;;;12.20;56.83;98402.56;1784085;79;21154;-70
2021/01/25 07:26:56;;;;;;;4.90;4.40;;;;;;;12.19;56.78;98415.59;1781411;79;21170;-69
2021/01/25 07:29:23;;;;;;;4.92;4.35;;;;;;;12.18;56.79;98410.75;1794383;79;21364;-69
2021/01/25 07:31:52;;;;;;;5.12;4.35;;;;;;;12.18;56.80;98400.63;1777468;79;21147;-69
2021/01/25 07:34:19;;;;;;;4.35;3.95;;;;;;;12.18;56.79;98395.30;1783476;77;21143;-69
2021/01/25 07:36:47;;;;;;;5.25;4.75;;;;;;;12.17;56.80;98413.65;1778076;79;21170;-69
2021/01/25 07:39:16;;;;;;;4.87;4.33;;;;;;;12.17;56.80;98381.70;1781059;79;21664;-68
2021/01/25 07:41:44;;;;;;;4.72;4.10;;;;;;;12.17;56.79;98387.03;1779562;79;21627;-68
2021/01/25 07:44:13;;;;;;;4.47;4.08;;;;;;;12.15;56.81;98373.92;1776891;78;21180;-66
2021/01/25 07:46:41;;;;;;;4.58;3.95;;;;;;;12.16;56.83;98382.72;1769081;78;21132;-69
2021/01/25 07:49:10;;;;;;;4.70;4.22;;;;;;;12.15;56.81;98378.44;1796077;78;21146;-67
2021/01/25 07:51:37;;;;;;;4.55;4.12;;;;;;;12.15;56.82;98382.43;1805448;78;21662;-67
2021/01/25 07:54:05;;;;;;;4.75;4.25;;;;;;;12.14;56.85;98372.80;1792344;78;21163;-69
2021/01/25 07:56:33;;;;;;;4.83;4.20;;;;;;;12.14;56.85;98368.80;1787828;78;21560;-68
2021/01/25 08:01:57;;;;;;;4.40;4.00;;;;;;;12.17;56.84;98350.56;1831858;77;28942;-67
2021/01/25 08:04:28;;;;;;;5.10;4.60;;;;;;;12.14;56.85;98355.49;1824195;77;21612;-66
2021/01/25 08:06:57;;;;;;;5.37;4.40;;;;;;;12.14;56.88;98360.81;1832142;77;21422;-67
2021/01/25 08:09:25;;;;;;;4.78;4.33;;;;;;;12.13;56.85;98354.69;1818463;77;21178;-68
2021/01/25 08:11:52;;;;;;;5.20;4.35;;;;;;;12.14;56.85;98360.81;1811875;78;21146;-67
2021/01/25 08:14:34;;;;;;;5.45;4.80;;;;;;;12.15;56.87;98373.92;1826321;78;21443;-67
2021/01/25 08:17:05;;;;;;;4.87;4.20;;;;;;;12.15;56.84;98375.25;1820331;78;21214;-67
2021/01/25 08:19:56;;;;;;;4.65;4.20;;;;;;;12.16;56.84;98376.06;1831954;77;21404;-67
2021/01/25 08:22:51;;;;;;;4.50;4.10;;;;;;;12.15;56.84;98361.13;1809037;78;21169;-67
2021/01/25 08:25:21;;;;;;;5.08;4.58;;;;;;;12.14;56.86;98367.47;1816177;78;21142;-67
2021/01/25 08:28:14;;;;;;;4.87;4.35;;;;;;;12.13;56.86;98360.01;1793958;78;22183;-67
2021/01/25 08:30:47;;;;;;;4.92;4.37;;;;;;;12.13;56.88;98375.14;1805894;78;21134;-68
2021/01/25 08:33:16;;;;;;;5.20;4.70;;;;;;;12.14;56.87;98339.52;1828591;77;22787;-67
2021/01/25 08:35:54;;;;;;;5.30;4.80;;;;;;;12.13;56.89;98360.50;1796576;77;21181;-67
2021/01/25 08:38:37;;;;;;;5.40;4.42;;;;;;;12.13;56.88;98362.67;1854200;77;21147;-66
2021/01/25 08:41:32;;;;;;;5.15;4.65;;;;;;;12.14;56.86;98361.63;1853430;77;21633;-67
2021/01/25 08:44:00;;;;;;;;;;;;;;;12.14;56.89;98360.30;1825978;77;21158;-66
2021/01/25 08:46:31;;;;;;;5.05;4.55;;;;;;;12.12;56.91;98338.91;1829721;77;22008;-65
2021/01/25 08:49:16;;;;;;;4.92;4.35;;;;;;;12.06;57.02;98343.24;1840406;77;21619;-68
2021/01/25 08:52:06;;;;;;;5.58;4.83;;;;;;;12.08;57.04;98357.16;1846754;77;21087;-66
2021/01/25 08:54:38;;;;;;;5.70;4.85;;;;;;;12.10;56.99;98325.00;1836076;77;21171;-69
2021/01/25 09:00:33;;;;;;;5.92;4.20;;;;;;;12.16;56.98;98332.13;1832261;76;28589;-67
2021/01/25 09:03:04;;;;;;;4.58;4.12;;;;;;;12.22;56.85;98320.62;1802755;77;21163;-67
2021/01/25 09:05:31;;;;;;;4.87;3.92;;;;;;;12.34;56.56;98317.61;1803430;77;22280;-67
2021/01/25 09:07:59;;;;;;;6.05;4.85;;;;;;;12.34;56.55;98314.11;1793346;78;21126;-66
2021/01/25 09:10:28;;;;;;;4.90;4.15;;;;;;;12.33;56.56;98319.95;1784967;77;21021;-67
2021/01/25 09:12:55;;;;;;;4.90;4.28;;;;;;;12.33;56.53;98339.92;1830720;76;21147;-67
2021/01/25 09:15:23;;;;;;;4.92;4.42;;;;;;;12.33;56.51;98317.29;1845669;75;21562;-67
2021/01/25 09:17:50;;;;;;;6.92;4.72;;;;;;;12.34;56.47;98318.10;1799079;78;21791;-66
2021/01/25 09:20:18;;;;;;;5.55;4.72;;;;;;;12.35;56.43;98322.41;1833054;77;21600;-66
2021/01/25 09:22:45;;;;;;;5.42;4.85;;;;;;;12.36;56.41;98306.22;1834227;77;21587;-67
2021/01/25 09:25:12;;;;;;;5.25;4.60;;;;;;;12.36;56.39;98292.91;1813929;76;21793;-65
2021/01/25 09:27:40;;;;;;;5.67;4.70;;;;;;;12.37;56.37;98283.06;1822669;76;21224;-67
2021/01/25 09:30:10;;;;;;;4.95;4.45;;;;;;;12.37;56.34;98283.88;1832917;76;21376;-66
2021/01/25 09:32:37;;;;;;;5.12;4.62;;;;;;;12.37;56.38;98305.17;1821496;76;21137;-65
2021/01/25 09:35:09;;;;;;;6.87;5.20;;;;;;;12.37;56.34;98287.87;1828665;78;21194;-66
2021/01/25 09:37:37;;;;;;;5.45;4.80;;;;;;;12.38;56.33;98280.69;1816150;76;21155;-67
2021/01/25 09:40:06;;;;;;;5.50;4.92;;;;;;;12.37;56.34;98275.88;1811750;78;21182;-67
2021/01/25 09:42:33;;;;;;;5.75;5.15;;;;;;;12.38;56.31;98274.87;1819957;77;21234;-66
2021/01/25 09:45:04;;;;;;;5.62;5.08;;;;;;;12.38;56.31;98268.70;1807161;77;21691;-67
2021/01/25 09:47:32;;;;;;;6.05;5.37;;;;;;;12.38;56.32;98279.35;1841731;76;21150;-67
2021/01/25 09:50:00;;;;;;;5.65;5.15;;;;;;;12.38;56.32;98284.19;1840263;76;21112;-65
2021/01/25 09:52:27;;;;;;;6.83;5.25;;;;;;;12.39;56.29;98284.99;1809759;78;21147;-66
2021/01/25 09:54:57;;;;;;;6.08;5.47;;;;;;;12.39;56.29;98281.81;1807367;78;23305;-66
2021/01/25 09:57:24;;;;;;;6.53;5.17;;;;;;;12.39;56.29;98281.81;1811585;77;21133;-66
2021/01/25 09:59:52;;;;;;;5.65;5.00;;;;;;;12.39;56.26;98265.02;1857555;76;21269;-66
2021/01/25 10:02:19;;;;;;;6.55;5.85;;;;;;;12.40;56.28;98277.32;1852170;75;21147;-65
2021/01/25 10:04:47;;;;;;;5.20;4.70;;;;;;;12.39;56.29;98264.50;1839934;77;21670;-64
2021/01/25 10:07:14;;;;;;;6.12;5.30;;;;;;;12.39;56.25;98243.72;1801943;77;23516;-65
2021/01/25 10:09:41;;;;;;;6.60;5.90;;;;;;;12.41;56.24;98238.18;1799790;78;21991;-65
2021/01/25 10:12:09;;;;;;;6.20;5.60;;;;;;;12.32;56.24;98215.82;1815648;76;21185;-68
2021/01/25 10:14:38;;;;;;;5.92;5.30;;;;;;;12.41;56.22;98231.52;1853179;77;21165;-66
2021/01/25 10:17:05;;;;;;;5.95;5.35;;;;;;;12.43;56.25;98230.27;1839244;75;21164;-66
2021/01/25 10:19:33;;;;;;;6.95;5.67;;;;;;;12.42;56.21;98221.99;1847092;75;22125;-65
2021/01/25 10:22:00;;;;;;;8.18;6.30;;;;;;;12.43;56.22;98203.63;1816716;77;21627;-67
2021/01/25 10:24:27;;;;;;;6.08;5.47;;;;;;;12.44;56.19;98199.95;1848619;76;21565;-69
2021/01/25 10:26:54;;;;;;;6.65;5.95;;;;;;;12.44;56.19;98202.61;1836091;77;21127;-69
2021/01/25 10:29:21;;;;;;;7.50;6.47;;;;;;;12.44;56.15;98197.28;1826124;77;21177;-72
2021/01/25 10:31:49;;;;;;;7.17;6.40;;;;;;;12.45;56.13;98185.58;1812993;78;22361;-70
2021/01/25 10:34:17;;;;;;;6.60;5.80;;;;;;;12.46;56.13;98185.89;1805845;78;21118;-68
2021/01/25 10:36:44;;;;;;;7.08;5.97;;;;;;;12.46;56.12;98181.06;1796179;77;21179;-70
2021/01/25 10:39:12;;;;;;;7.12;6.35;;;;;;;12.46;56.13;98177.06;1793895;77;21197;-66
2021/01/25 10:41:39;;;;;;;6.85;6.15;;;;;;;12.46;56.11;98169.91;1832010;77;21182;-67
2021/01/25 10:44:07;;;;;;;7.60;6.78;;;;;;;12.46;56.12;98162.42;1845071;77;21352;-67
2021/01/25 10:46:35;;;;;;;7.20;5.95;;;;;;;12.46;56.12;98156.59;1840457;77;21495;-66
2021/01/25 10:49:02;;;;;;;6.03;5.42;;;;;;;12.47;56.10;98163.54;1809499;78;21588;-68
2021/01/25 10:51:29;;;;;;;6.33;5.65;;;;;;;12.47;56.10;98152.08;1819934;77;21176;-67
2021/01/25 10:53:57;;;;;;;7.28;5.50;;;;;;;12.47;56.11;98148.08;1825005;76;21083;-68
2021/01/25 10:56:24;;;;;;;6.12;5.58;;;;;;;12.48;56.11;98159.05;1828348;76;21435;-68
2021/01/25 10:58:52;;;;;;;6.65;5.65;;;;;;;12.48;56.09;98147.06;1835763;77;22310;-68
2021/01/25 11:01:19;;;;;;;7.33;6.03;;;;;;;12.48;56.11;98147.88;1828845;77;21199;-68
2021/01/25 11:03:47;;;;;;;7.37;6.47;;;;;;;12.48;56.10;98140.41;1837934;77;21191;-67
2021/01/25 11:06:15;;;;;;;7.62;6.22;;;;;;;12.48;56.08;98127.90;1838668;77;21148;-67
2021/01/25 11:08:45;;;;;;;7.05;6.20;;;;;;;12.48;56.07;98121.23;1820912;77;21214;-69
2021/01/25 11:11:12;;;;;;;6.72;5.92;;;;;;;12.48;56.08;98123.91;1800649;77;21648;-68
2021/01/25 11:13:39;;;;;;;5.87;5.12;;;;;;;12.48;56.09;98109.78;1800634;78;21173;-67
2021/01/25 11:16:07;;;;;;;6.15;5.50;;;;;;;12.49;56.09;98104.73;1833717;75;21132;-67
2021/01/25 11:18:34;;;;;;;6.53;5.50;;;;;;;12.48;56.08;98097.27;1838486;77;21191;-66
2021/01/25 11:21:02;;;;;;;6.70;5.70;;;;;;;12.48;56.08;98105.25;1853893;77;21190;-67
2021/01/25 11:23:29;;;;;;;6.37;5.70;;;;;;;12.49;56.08;98102.06;1830838;77;21158;-66
2021/01/25 11:25:57;;;;;;;6.95;5.85;;;;;;;12.48;56.09;98099.93;1799862;78;21141;-66
2021/01/25 11:28:24;;;;;;;7.45;5.70;;;;;;;12.48;56.08;98085.81;1833499;77;21130;-65
2021/01/25 11:30:51;;;;;;;5.83;5.22;;;;;;;12.49;56.11;98075.44;1798333;78;21558;-65
2021/01/25 11:33:19;;;;;;;6.55;5.85;;;;;;;12.48;56.15;98077.81;1815009;77;21925;-66
2021/01/25 11:35:46;;;;;;;6.15;5.58;;;;;;;12.48;56.12;98071.16;1842339;77;21198;-67
2021/01/25 11:38:13;;;;;;;7.08;5.72;;;;;;;12.48;56.13;98067.16;1822108;77;21183;-68
2021/01/25 11:40:40;;;;;;;6.42;5.37;;;;;;;12.48;56.12;98071.16;1811611;77;21157;-66
2021/01/25 11:43:08;;;;;;;6.05;5.45;;;;;;;12.48;56.11;98066.64;1852822;75;21204;-69
2021/01/25 11:45:37;;;;;;;6.40;5.47;;;;;;;12.48;56.12;98083.14;1816602;78;21354;-67
2021/01/25 11:48:06;;;;;;;5.53;5.03;;;;;;;12.48;56.14;98082.62;1821348;77;21163;-69
2021/01/25 11:50:33;;;;;;;6.42;5.53;;;;;;;12.48;56.12;98064.50;1828685;77;21134;-67
2021/01/25 11:53:01;;;;;;;5.87;5.28;;;;;;;12.48;56.09;98057.31;1857518;75;21205;-67